sensor_id;sensor_type;location;lat;lon;timestamp;pressure;altitude;pressure_sealevel;temperature;humidity
27643;BME280;15053;48.618;10.024;2023-09-18T00:00:14;93909.22;;;20.07;78.85
27643;BME280;15053;48.618;10.024;2023-09-18T00:02:40;93907.69;;;20.06;78.67
27643;BME280;15053;48.618;10.024;2023-09-18T00:05:07;93910.72;;;20.05;78.94
27643;BME280;15053;48.618;10.024;2023-09-18T00:07:34;93903.09;;;19.99;78.85
27643;BME280;15053;48.618;10.024;2023-09-18T00:10:00;93906.06;;;19.98;78.82
27643;BME280;15053;48.618;10.024;2023-09-18T00:12:27;93899.97;;;19.94;79.23
27643;BME280;15053;48.618;10.024;2023-09-18T00:14:53;93896.91;;;19.92;79.02
27643;BME280;15053;48.618;10.024;2023-09-18T00:17:20;93893.03;;;19.86;79.37
27643;BME280;15053;48.618;10.024;2023-09-18T00:19:47;93902.16;;;19.88;79.22
27643;BME280;15053;48.618;10.024;2023-09-18T00:22:14;93905.06;;;19.83;79.43
27643;BME280;15053;48.618;10.024;2023-09-18T00:24:40;93903.47;;;19.79;80.04
27643;BME280;15053;48.618;10.024;2023-09-18T00:27:07;93894.00;;;19.78;80.23
27643;BME280;15053;48.618;10.024;2023-09-18T00:29:33;93900.06;;;19.78;80.00
27643;BME280;15053;48.618;10.024;2023-09-18T00:32:00;93890.63;;;19.77;79.96
27643;BME280;15053;48.618;10.024;2023-09-18T00:34:26;93893.69;;;19.79;79.75
27643;BME280;15053;48.618;10.024;2023-09-18T00:36:53;93887.63;;;19.79;79.85
27643;BME280;15053;48.618;10.024;2023-09-18T00:39:19;93884.97;;;19.79;80.27
27643;BME280;15053;48.618;10.024;2023-09-18T00:41:46;93885.34;;;19.77;80.70
27643;BME280;15053;48.618;10.024;2023-09-18T00:44:15;93880.81;;;19.78;81.16
27643;BME280;15053;48.618;10.024;2023-09-18T00:46:43;93880.75;;;19.74;81.27
27643;BME280;15053;48.618;10.024;2023-09-18T00:49:09;93882.22;;;19.72;81.67
27643;BME280;15053;48.618;10.024;2023-09-18T00:51:36;93875.41;;;19.71;81.56
27643;BME280;15053;48.618;10.024;2023-09-18T00:54:03;93862.44;;;19.62;81.30
27643;BME280;15053;48.618;10.024;2023-09-18T00:56:30;93860.91;;;19.61;82.05
27643;BME280;15053;48.618;10.024;2023-09-18T00:58:57;93853.69;;;19.58;82.51
27643;BME280;15053;48.618;10.024;2023-09-18T01:01:23;93851.75;;;19.55;82.82
27643;BME280;15053;48.618;10.024;2023-09-18T01:03:51;93849.13;;;19.55;83.00
27643;BME280;15053;48.618;10.024;2023-09-18T01:06:19;93842.69;;;19.56;83.11
27643;BME280;15053;48.618;10.024;2023-09-18T01:08:47;93835.22;;;19.58;83.71
27643;BME280;15053;48.618;10.024;2023-09-18T01:11:29;93834.84;;;19.60;84.40
27643;BME280;15053;48.618;10.024;2023-09-18T01:14:09;93851.88;;;19.62;84.36
27643;BME280;15053;48.618;10.024;2023-09-18T01:16:51;93852.56;;;19.59;84.55
27643;BME280;15053;48.618;10.024;2023-09-18T01:19:40;93851.78;;;19.59;84.13
27643;BME280;15053;48.618;10.024;2023-09-18T01:22:08;93860.78;;;19.54;83.66
27643;BME280;15053;48.618;10.024;2023-09-18T01:24:37;93855.09;;;19.52;83.59
27643;BME280;15053;48.618;10.024;2023-09-18T01:27:06;93863.44;;;19.54;83.50
27643;BME280;15053;48.618;10.024;2023-09-18T01:29:33;93866.06;;;19.54;83.48
27643;BME280;15053;48.618;10.024;2023-09-18T01:31:59;93866.84;;;19.55;83.21
27643;BME280;15053;48.618;10.024;2023-09-18T01:34:37;93853.25;;;19.56;83.79
27643;BME280;15053;48.618;10.024;2023-09-18T01:37:06;93848.75;;;19.57;83.70
27643;BME280;15053;48.618;10.024;2023-09-18T01:39:34;93853.69;;;19.58;83.29
27643;BME280;15053;48.618;10.024;2023-09-18T01:42:03;93846.56;;;19.62;83.40
27643;BME280;15053;48.618;10.024;2023-09-18T01:44:35;93852.22;;;19.61;83.60
27643;BME280;15053;48.618;10.024;2023-09-18T01:47:06;93849.53;;;19.57;83.99
27643;BME280;15053;48.618;10.024;2023-09-18T01:49:35;93857.44;;;19.57;84.29
27643;BME280;15053;48.618;10.024;2023-09-18T01:52:03;93860.91;;;19.61;84.46
27643;BME280;15053;48.618;10.024;2023-09-18T01:54:30;93853.75;;;19.62;84.72
27643;BME280;15053;48.618;10.024;2023-09-18T01:56:57;93844.31;;;19.61;84.76
27643;BME280;15053;48.618;10.024;2023-09-18T01:59:24;93820.16;;;19.62;84.42
27643;BME280;15053;48.618;10.024;2023-09-18T02:01:52;93788.38;;;19.59;85.05
27643;BME280;15053;48.618;10.024;2023-09-18T02:04:21;93775.84;;;19.52;85.64
27643;BME280;15053;48.618;10.024;2023-09-18T02:07:07;93796.84;;;19.45;86.07
27643;BME280;15053;48.618;10.024;2023-09-18T02:09:34;93795.69;;;19.42;86.83
27643;BME280;15053;48.618;10.024;2023-09-18T02:12:01;93779.69;;;19.35;86.95
27643;BME280;15053;48.618;10.024;2023-09-18T02:14:28;93770.59;;;19.33;87.45
27643;BME280;15053;48.618;10.024;2023-09-18T02:16:57;93769.78;;;19.29;87.78
27643;BME280;15053;48.618;10.024;2023-09-18T02:19:24;93776.53;;;19.26;87.88
27643;BME280;15053;48.618;10.024;2023-09-18T02:21:50;93802.16;;;19.26;88.40
27643;BME280;15053;48.618;10.024;2023-09-18T02:24:17;93799.53;;;19.26;88.70
27643;BME280;15053;48.618;10.024;2023-09-18T02:26:44;93799.28;;;19.34;88.17
27643;BME280;15053;48.618;10.024;2023-09-18T02:29:11;93788.72;;;19.34;88.04
27643;BME280;15053;48.618;10.024;2023-09-18T02:31:40;93777.06;;;19.35;88.08
27643;BME280;15053;48.618;10.024;2023-09-18T02:34:07;93774.91;;;19.41;87.85
27643;BME280;15053;48.618;10.024;2023-09-18T02:36:37;93779.91;;;19.46;88.00
27643;BME280;15053;48.618;10.024;2023-09-18T02:39:04;93770.88;;;19.47;87.90
27643;BME280;15053;48.618;10.024;2023-09-18T02:41:30;93767.38;;;19.43;87.60
27643;BME280;15053;48.618;10.024;2023-09-18T02:43:57;93771.97;;;19.46;87.64
27643;BME280;15053;48.618;10.024;2023-09-18T02:46:24;93763.28;;;19.46;87.67
27643;BME280;15053;48.618;10.024;2023-09-18T02:48:50;93768.97;;;19.48;87.34
27643;BME280;15053;48.618;10.024;2023-09-18T02:51:18;93764.88;;;19.50;87.01
27643;BME280;15053;48.618;10.024;2023-09-18T02:53:44;93765.69;;;19.54;86.83
27643;BME280;15053;48.618;10.024;2023-09-18T02:56:11;93771.72;;;19.55;86.70
27643;BME280;15053;48.618;10.024;2023-09-18T02:58:38;93782.63;;;19.53;87.04
27643;BME280;15053;48.618;10.024;2023-09-18T03:01:06;93798.75;;;19.45;86.76
27643;BME280;15053;48.618;10.024;2023-09-18T03:03:33;93800.06;;;19.35;86.62
27643;BME280;15053;48.618;10.024;2023-09-18T03:06:01;93793.53;;;19.29;86.64
27643;BME280;15053;48.618;10.024;2023-09-18T03:08:29;93796.47;;;19.24;86.71
27643;BME280;15053;48.618;10.024;2023-09-18T03:10:57;93800.19;;;19.19;86.51
27643;BME280;15053;48.618;10.024;2023-09-18T03:13:30;93785.38;;;19.15;86.85
27643;BME280;15053;48.618;10.024;2023-09-18T03:15:57;93774.78;;;19.11;86.75
27643;BME280;15053;48.618;10.024;2023-09-18T03:18:26;93760.41;;;19.09;87.04
27643;BME280;15053;48.618;10.024;2023-09-18T03:20:53;93757.75;;;19.09;87.09
27643;BME280;15053;48.618;10.024;2023-09-18T03:23:20;93763.38;;;19.07;87.11
27643;BME280;15053;48.618;10.024;2023-09-18T03:25:47;93779.97;;;19.08;87.00
27643;BME280;15053;48.618;10.024;2023-09-18T03:28:18;93778.34;;;19.00;86.83
27643;BME280;15053;48.618;10.024;2023-09-18T03:30:46;93765.06;;;18.96;87.23
27643;BME280;15053;48.618;10.024;2023-09-18T03:33:13;93758.69;;;18.97;86.94
27643;BME280;15053;48.618;10.024;2023-09-18T03:35:48;93748.19;;;19.01;87.32
27643;BME280;15053;48.618;10.024;2023-09-18T03:38:18;93748.59;;;19.03;86.89
27643;BME280;15053;48.618;10.024;2023-09-18T03:40:45;93738.44;;;19.05;87.07
27643;BME280;15053;48.618;10.024;2023-09-18T03:43:12;93735.09;;;19.08;86.96
27643;BME280;15053;48.618;10.024;2023-09-18T03:45:39;93743.03;;;19.08;86.54
27643;BME280;15053;48.618;10.024;2023-09-18T03:48:10;93741.50;;;19.07;86.13
27643;BME280;15053;48.618;10.024;2023-09-18T03:50:37;93742.19;;;19.04;86.06
27643;BME280;15053;48.618;10.024;2023-09-18T03:53:05;93726.59;;;18.95;85.93
27643;BME280;15053;48.618;10.024;2023-09-18T03:55:32;93740.06;;;18.90;85.87
27643;BME280;15053;48.618;10.024;2023-09-18T03:57:59;93728.34;;;18.88;86.00
27643;BME280;15053;48.618;10.024;2023-09-18T04:00:26;93722.25;;;18.83;85.70
27643;BME280;15053;48.618;10.024;2023-09-18T04:02:53;93729.63;;;18.74;85.57
27643;BME280;15053;48.618;10.024;2023-09-18T04:05:20;93732.97;;;18.71;85.20
27643;BME280;15053;48.618;10.024;2023-09-18T04:07:47;93729.78;;;18.62;85.29
27643;BME280;15053;48.618;10.024;2023-09-18T04:10:14;93733.75;;;18.53;85.35
27643;BME280;15053;48.618;10.024;2023-09-18T04:12:50;93732.41;;;18.43;86.11
27643;BME280;15053;48.618;10.024;2023-09-18T04:15:20;93748.00;;;18.48;86.36
27643;BME280;15053;48.618;10.024;2023-09-18T04:17:47;93754.78;;;18.49;86.80
27643;BME280;15053;48.618;10.024;2023-09-18T04:20:14;93773.41;;;18.41;86.83
27643;BME280;15053;48.618;10.024;2023-09-18T04:22:46;93784.59;;;18.34;87.31
27643;BME280;15053;48.618;10.024;2023-09-18T04:25:17;93773.75;;;18.20;87.67
27643;BME280;15053;48.618;10.024;2023-09-18T04:27:46;93774.38;;;18.13;88.10
27643;BME280;15053;48.618;10.024;2023-09-18T04:30:12;93795.81;;;18.12;88.37
27643;BME280;15053;48.618;10.024;2023-09-18T04:32:40;93802.88;;;18.08;88.91
27643;BME280;15053;48.618;10.024;2023-09-18T04:35:08;93796.09;;;18.07;89.30
27643;BME280;15053;48.618;10.024;2023-09-18T04:37:37;93793.00;;;18.05;89.86
27643;BME280;15053;48.618;10.024;2023-09-18T04:40:06;93790.38;;;18.05;90.11
27643;BME280;15053;48.618;10.024;2023-09-18T04:42:38;93778.31;;;18.04;90.13
27643;BME280;15053;48.618;10.024;2023-09-18T04:45:07;93779.50;;;18.06;90.28
27643;BME280;15053;48.618;10.024;2023-09-18T04:47:34;93771.25;;;18.08;90.22
27643;BME280;15053;48.618;10.024;2023-09-18T04:50:01;93763.91;;;18.17;90.13
27643;BME280;15053;48.618;10.024;2023-09-18T04:52:38;93759.47;;;18.21;90.10
27643;BME280;15053;48.618;10.024;2023-09-18T04:55:07;93768.56;;;18.23;89.54
27643;BME280;15053;48.618;10.024;2023-09-18T04:57:35;93779.16;;;18.27;89.38
27643;BME280;15053;48.618;10.024;2023-09-18T05:00:02;93781.13;;;18.30;88.55
27643;BME280;15053;48.618;10.024;2023-09-18T05:02:43;93778.19;;;18.35;88.34
27643;BME280;15053;48.618;10.024;2023-09-18T05:05:10;93772.31;;;18.42;88.01
27643;BME280;15053;48.618;10.024;2023-09-18T05:07:37;93766.88;;;18.50;87.53
27643;BME280;15053;48.618;10.024;2023-09-18T05:10:04;93766.16;;;18.53;87.19
27643;BME280;15053;48.618;10.024;2023-09-18T05:12:31;93763.25;;;18.58;86.45
27643;BME280;15053;48.618;10.024;2023-09-18T05:14:58;93761.72;;;18.57;86.32
27643;BME280;15053;48.618;10.024;2023-09-18T05:17:45;93757.56;;;18.56;85.65
27643;BME280;15053;48.618;10.024;2023-09-18T05:20:21;93758.66;;;18.55;85.44
27643;BME280;15053;48.618;10.024;2023-09-18T05:22:51;93751.16;;;18.57;84.96
27643;BME280;15053;48.618;10.024;2023-09-18T05:25:23;93751.59;;;18.59;84.40
27643;BME280;15053;48.618;10.024;2023-09-18T05:27:52;93757.28;;;18.61;84.21
27643;BME280;15053;48.618;10.024;2023-09-18T05:30:25;93749.69;;;18.60;84.04
27643;BME280;15053;48.618;10.024;2023-09-18T05:32:55;93741.44;;;18.61;83.65
27643;BME280;15053;48.618;10.024;2023-09-18T05:35:22;93743.81;;;18.66;83.53
27643;BME280;15053;48.618;10.024;2023-09-18T05:37:50;93748.38;;;18.69;83.07
27643;BME280;15053;48.618;10.024;2023-09-18T05:40:21;93754.06;;;18.71;82.94
27643;BME280;15053;48.618;10.024;2023-09-18T05:42:47;93752.81;;;18.65;82.54
27643;BME280;15053;48.618;10.024;2023-09-18T05:45:14;93769.97;;;18.75;82.74
27643;BME280;15053;48.618;10.024;2023-09-18T05:47:41;93770.44;;;18.80;82.56
27643;BME280;15053;48.618;10.024;2023-09-18T05:50:10;93780.25;;;18.80;82.25
27643;BME280;15053;48.618;10.024;2023-09-18T05:52:42;93781.06;;;18.84;82.27
27643;BME280;15053;48.618;10.024;2023-09-18T05:55:09;93778.91;;;18.90;82.25
27643;BME280;15053;48.618;10.024;2023-09-18T05:57:37;93772.81;;;18.85;82.31
27643;BME280;15053;48.618;10.024;2023-09-18T06:00:04;93783.53;;;18.96;82.33
27643;BME280;15053;48.618;10.024;2023-09-18T06:02:38;93793.88;;;19.05;81.54
27643;BME280;15053;48.618;10.024;2023-09-18T06:05:05;93800.81;;;19.13;81.15
27643;BME280;15053;48.618;10.024;2023-09-18T06:07:33;93802.88;;;19.23;80.86
27643;BME280;15053;48.618;10.024;2023-09-18T06:09:59;93807.50;;;19.29;80.32
27643;BME280;15053;48.618;10.024;2023-09-18T06:12:26;93797.97;;;19.44;80.00
27643;BME280;15053;48.618;10.024;2023-09-18T06:14:52;93802.66;;;19.54;79.77
27643;BME280;15053;48.618;10.024;2023-09-18T06:17:19;93799.78;;;19.63;79.29
27643;BME280;15053;48.618;10.024;2023-09-18T06:19:46;93785.56;;;19.71;79.01
27643;BME280;15053;48.618;10.024;2023-09-18T06:22:13;93787.59;;;19.81;78.63
27643;BME280;15053;48.618;10.024;2023-09-18T06:24:40;93780.56;;;19.88;78.85
27643;BME280;15053;48.618;10.024;2023-09-18T06:27:06;93784.44;;;19.98;78.73
27643;BME280;15053;48.618;10.024;2023-09-18T06:29:34;93779.31;;;20.09;78.25
27643;BME280;15053;48.618;10.024;2023-09-18T06:32:01;93778.28;;;20.17;78.00
27643;BME280;15053;48.618;10.024;2023-09-18T06:34:27;93775.44;;;20.29;77.76
27643;BME280;15053;48.618;10.024;2023-09-18T06:36:57;93768.75;;;20.38;77.24
27643;BME280;15053;48.618;10.024;2023-09-18T06:39:23;93774.50;;;20.44;76.86
27643;BME280;15053;48.618;10.024;2023-09-18T06:41:52;93772.66;;;20.48;76.72
27643;BME280;15053;48.618;10.024;2023-09-18T06:44:18;93778.00;;;20.51;76.65
27643;BME280;15053;48.618;10.024;2023-09-18T06:46:45;93782.22;;;20.56;76.83
27643;BME280;15053;48.618;10.024;2023-09-18T06:49:12;93784.53;;;20.61;76.93
27643;BME280;15053;48.618;10.024;2023-09-18T06:51:38;93784.63;;;20.68;76.92
27643;BME280;15053;48.618;10.024;2023-09-18T06:54:09;93783.16;;;20.74;76.74
27643;BME280;15053;48.618;10.024;2023-09-18T06:56:36;93784.75;;;20.82;76.86
27643;BME280;15053;48.618;10.024;2023-09-18T06:59:02;93784.13;;;20.92;76.44
27643;BME280;15053;48.618;10.024;2023-09-18T07:01:29;93786.88;;;21.03;75.85
27643;BME280;15053;48.618;10.024;2023-09-18T07:03:58;93790.38;;;21.10;75.50
27643;BME280;15053;48.618;10.024;2023-09-18T07:06:26;93794.59;;;21.15;74.92
27643;BME280;15053;48.618;10.024;2023-09-18T07:08:53;93796.19;;;21.23;74.33
27643;BME280;15053;48.618;10.024;2023-09-18T07:11:20;93793.97;;;21.29;74.02
27643;BME280;15053;48.618;10.024;2023-09-18T07:13:49;93806.03;;;21.26;74.03
27643;BME280;15053;48.618;10.024;2023-09-18T07:16:15;93811.00;;;21.28;73.92
27643;BME280;15053;48.618;10.024;2023-09-18T07:18:42;93796.63;;;21.29;73.56
27643;BME280;15053;48.618;10.024;2023-09-18T07:21:09;93799.28;;;21.32;73.21
27643;BME280;15053;48.618;10.024;2023-09-18T07:23:36;93804.28;;;21.41;72.83
27643;BME280;15053;48.618;10.024;2023-09-18T07:26:03;93800.56;;;21.49;72.49
27643;BME280;15053;48.618;10.024;2023-09-18T07:28:30;93802.16;;;21.57;72.56
27643;BME280;15053;48.618;10.024;2023-09-18T07:30:56;93800.69;;;21.63;72.30
27643;BME280;15053;48.618;10.024;2023-09-18T07:33:23;93799.22;;;21.69;72.64
27643;BME280;15053;48.618;10.024;2023-09-18T07:35:50;93803.50;;;21.81;72.32
27643;BME280;15053;48.618;10.024;2023-09-18T07:38:19;93804.72;;;21.90;72.02
27643;BME280;15053;48.618;10.024;2023-09-18T07:40:46;93802.50;;;21.99;71.92
27643;BME280;15053;48.618;10.024;2023-09-18T07:43:13;93808.63;;;22.07;70.97
27643;BME280;15053;48.618;10.024;2023-09-18T07:45:40;93816.59;;;22.10;70.80
27643;BME280;15053;48.618;10.024;2023-09-18T07:48:07;93805.63;;;22.08;70.65
27643;BME280;15053;48.618;10.024;2023-09-18T07:50:35;93820.09;;;22.21;70.52
27643;BME280;15053;48.618;10.024;2023-09-18T07:53:02;93820.84;;;22.25;70.53
27643;BME280;15053;48.618;10.024;2023-09-18T07:55:29;93824.25;;;22.22;70.42
27643;BME280;15053;48.618;10.024;2023-09-18T07:57:56;93836.09;;;22.36;70.31
27643;BME280;15053;48.618;10.024;2023-09-18T08:00:23;93829.28;;;22.38;70.06
27643;BME280;15053;48.618;10.024;2023-09-18T08:02:54;93845.63;;;22.44;70.25
27643;BME280;15053;48.618;10.024;2023-09-18T08:05:25;93854.72;;;22.43;70.04
27643;BME280;15053;48.618;10.024;2023-09-18T08:07:54;93855.81;;;22.42;69.09
27643;BME280;15053;48.618;10.024;2023-09-18T08:10:23;93864.97;;;22.44;68.39
27643;BME280;15053;48.618;10.024;2023-09-18T08:12:49;93847.91;;;22.45;67.18
27643;BME280;15053;48.618;10.024;2023-09-18T08:15:19;93853.22;;;22.49;66.53
27643;BME280;15053;48.618;10.024;2023-09-18T08:17:46;93863.50;;;22.54;65.90
27643;BME280;15053;48.618;10.024;2023-09-18T08:20:15;93861.56;;;22.51;64.52
27643;BME280;15053;48.618;10.024;2023-09-18T08:22:43;93872.56;;;22.53;63.12
27643;BME280;15053;48.618;10.024;2023-09-18T08:25:10;93866.91;;;22.54;62.48
27643;BME280;15053;48.618;10.024;2023-09-18T08:27:38;93877.91;;;22.56;61.97
27643;BME280;15053;48.618;10.024;2023-09-18T08:30:12;93880.66;;;22.63;62.04
27643;BME280;15053;48.618;10.024;2023-09-18T08:32:40;93887.88;;;22.70;61.42
27643;BME280;15053;48.618;10.024;2023-09-18T08:35:08;93883.75;;;22.76;61.33
27643;BME280;15053;48.618;10.024;2023-09-18T08:37:35;93884.88;;;22.78;59.78
27643;BME280;15053;48.618;10.024;2023-09-18T08:40:01;93884.50;;;22.80;59.57
27643;BME280;15053;48.618;10.024;2023-09-18T08:42:45;93886.41;;;22.83;59.47
27643;BME280;15053;48.618;10.024;2023-09-18T08:45:15;93883.41;;;22.84;58.37
27643;BME280;15053;48.618;10.024;2023-09-18T08:47:45;93888.66;;;22.77;57.57
27643;BME280;15053;48.618;10.024;2023-09-18T08:50:13;93890.53;;;22.70;58.30
27643;BME280;15053;48.618;10.024;2023-09-18T08:52:41;93893.19;;;22.70;58.35
27643;BME280;15053;48.618;10.024;2023-09-18T08:55:09;93894.72;;;22.71;58.11
27643;BME280;15053;48.618;10.024;2023-09-18T08:57:36;93901.16;;;22.70;57.96
27643;BME280;15053;48.618;10.024;2023-09-18T09:00:04;93901.50;;;22.65;58.43
27643;BME280;15053;48.618;10.024;2023-09-18T09:02:34;93906.00;;;22.61;59.58
27643;BME280;15053;48.618;10.024;2023-09-18T09:05:00;93892.72;;;22.57;59.46
27643;BME280;15053;48.618;10.024;2023-09-18T09:07:28;93899.91;;;22.57;59.38
27643;BME280;15053;48.618;10.024;2023-09-18T09:09:57;93905.16;;;22.50;59.13
27643;BME280;15053;48.618;10.024;2023-09-18T09:12:59;93893.75;;;22.39;59.46
27643;BME280;15053;48.618;10.024;2023-09-18T09:15:28;93890.66;;;22.29;58.40
27643;BME280;15053;48.618;10.024;2023-09-18T09:18:07;93903.06;;;22.18;58.93
27643;BME280;15053;48.618;10.024;2023-09-18T09:20:35;93895.44;;;22.10;59.19
27643;BME280;15053;48.618;10.024;2023-09-18T09:23:04;93890.81;;;22.03;59.76
27643;BME280;15053;48.618;10.024;2023-09-18T09:25:32;93901.00;;;21.98;59.67
27643;BME280;15053;48.618;10.024;2023-09-18T09:28:01;93905.88;;;21.92;59.43
27643;BME280;15053;48.618;10.024;2023-09-18T09:30:31;93894.06;;;21.86;60.21
27643;BME280;15053;48.618;10.024;2023-09-18T09:32:58;93891.00;;;21.84;60.89
27643;BME280;15053;48.618;10.024;2023-09-18T09:35:30;93888.00;;;21.86;61.12
27643;BME280;15053;48.618;10.024;2023-09-18T09:38:00;93897.16;;;21.88;60.85
27643;BME280;15053;48.618;10.024;2023-09-18T09:40:30;93889.09;;;21.81;61.10
27643;BME280;15053;48.618;10.024;2023-09-18T09:42:57;93894.44;;;21.85;61.26
27643;BME280;15053;48.618;10.024;2023-09-18T09:45:31;93894.38;;;21.81;61.12
27643;BME280;15053;48.618;10.024;2023-09-18T09:48:03;93899.31;;;21.79;60.37
27643;BME280;15053;48.618;10.024;2023-09-18T09:50:32;93896.25;;;21.77;61.17
27643;BME280;15053;48.618;10.024;2023-09-18T09:52:59;93903.09;;;21.78;61.03
27643;BME280;15053;48.618;10.024;2023-09-18T09:55:28;93906.47;;;21.75;61.21
27643;BME280;15053;48.618;10.024;2023-09-18T09:58:03;93917.03;;;21.71;61.39
27643;BME280;15053;48.618;10.024;2023-09-18T10:00:46;93922.31;;;21.68;61.10
27643;BME280;15053;48.618;10.024;2023-09-18T10:03:18;93907.13;;;21.65;61.54
27643;BME280;15053;48.618;10.024;2023-09-18T10:05:47;93900.66;;;21.62;62.21
27643;BME280;15053;48.618;10.024;2023-09-18T10:08:20;93908.94;;;21.57;63.13
27643;BME280;15053;48.618;10.024;2023-09-18T10:10:53;93927.78;;;21.49;64.06
27643;BME280;15053;48.618;10.024;2023-09-18T10:13:27;93933.69;;;21.35;64.92
27643;BME280;15053;48.618;10.024;2023-09-18T10:15:56;93951.69;;;21.19;65.41
27643;BME280;15053;48.618;10.024;2023-09-18T10:18:28;93968.91;;;21.06;65.89
27643;BME280;15053;48.618;10.024;2023-09-18T10:21:22;93966.38;;;20.87;67.03
27643;BME280;15053;48.618;10.024;2023-09-18T10:24:06;93979.66;;;20.64;68.74
27643;BME280;15053;48.618;10.024;2023-09-18T10:26:50;93972.94;;;20.44;70.06
27643;BME280;15053;48.618;10.024;2023-09-18T10:29:19;93995.09;;;20.36;71.18
27643;BME280;15053;48.618;10.024;2023-09-18T10:31:46;94011.56;;;20.26;72.21
27643;BME280;15053;48.618;10.024;2023-09-18T10:34:15;94011.44;;;20.19;73.13
27643;BME280;15053;48.618;10.024;2023-09-18T10:36:43;94027.94;;;20.12;74.34
27643;BME280;15053;48.618;10.024;2023-09-18T10:39:11;94027.75;;;20.01;75.26
27643;BME280;15053;48.618;10.024;2023-09-18T10:41:39;94018.47;;;19.88;76.14
27643;BME280;15053;48.618;10.024;2023-09-18T10:44:08;94017.22;;;19.82;76.70
27643;BME280;15053;48.618;10.024;2023-09-18T10:46:36;94020.84;;;19.74;77.04
27643;BME280;15053;48.618;10.024;2023-09-18T10:49:04;94021.81;;;19.66;77.98
27643;BME280;15053;48.618;10.024;2023-09-18T10:51:32;94016.75;;;19.58;78.10
27643;BME280;15053;48.618;10.024;2023-09-18T10:54:00;94024.97;;;19.53;78.69
27643;BME280;15053;48.618;10.024;2023-09-18T10:56:27;94014.63;;;19.48;79.23
27643;BME280;15053;48.618;10.024;2023-09-18T10:59:00;94002.41;;;19.39;79.70
27643;BME280;15053;48.618;10.024;2023-09-18T11:01:29;94012.28;;;19.42;80.46
27643;BME280;15053;48.618;10.024;2023-09-18T11:04:01;94014.88;;;19.39;80.96
27643;BME280;15053;48.618;10.024;2023-09-18T11:06:29;93998.72;;;19.25;81.00
27643;BME280;15053;48.618;10.024;2023-09-18T11:09:00;94023.44;;;19.17;81.39
27643;BME280;15053;48.618;10.024;2023-09-18T11:11:31;94034.97;;;19.09;81.75
27643;BME280;15053;48.618;10.024;2023-09-18T11:14:00;94037.03;;;19.00;82.84
27643;BME280;15053;48.618;10.024;2023-09-18T11:19:05;94030.66;;;18.85;83.93
27643;BME280;15053;48.618;10.024;2023-09-18T11:21:33;94016.69;;;18.84;84.60
27643;BME280;15053;48.618;10.024;2023-09-18T11:24:08;94025.56;;;18.76;84.61
27643;BME280;15053;48.618;10.024;2023-09-18T11:26:40;94017.41;;;18.66;85.42
27643;BME280;15053;48.618;10.024;2023-09-18T11:29:12;94019.63;;;18.64;85.67
27643;BME280;15053;48.618;10.024;2023-09-18T11:31:47;94017.06;;;18.52;86.82
27643;BME280;15053;48.618;10.024;2023-09-18T11:34:21;94016.81;;;18.41;87.06
27643;BME280;15053;48.618;10.024;2023-09-18T11:36:49;94013.59;;;18.32;87.84
27643;BME280;15053;48.618;10.024;2023-09-18T11:39:36;94018.78;;;18.28;88.44
27643;BME280;15053;48.618;10.024;2023-09-18T11:42:09;94018.59;;;18.21;89.04
27643;BME280;15053;48.618;10.024;2023-09-18T11:44:37;94024.47;;;18.15;89.39
27643;BME280;15053;48.618;10.024;2023-09-18T11:47:10;94024.28;;;18.08;90.04
27643;BME280;15053;48.618;10.024;2023-09-18T11:49:47;94020.03;;;18.03;90.66
27643;BME280;15053;48.618;10.024;2023-09-18T11:52:17;94011.50;;;17.94;91.00
27643;BME280;15053;48.618;10.024;2023-09-18T11:54:45;94013.31;;;17.90;92.20
27643;BME280;15053;48.618;10.024;2023-09-18T11:57:14;94016.59;;;17.87;92.81
27643;BME280;15053;48.618;10.024;2023-09-18T11:59:41;94017.38;;;17.88;93.15
27643;BME280;15053;48.618;10.024;2023-09-18T12:02:14;94025.19;;;17.84;93.94
27643;BME280;15053;48.618;10.024;2023-09-18T12:04:47;94025.50;;;17.83;94.34
27643;BME280;15053;48.618;10.024;2023-09-18T12:07:14;94024.00;;;17.82;95.02
27643;BME280;15053;48.618;10.024;2023-09-18T12:09:41;94022.03;;;17.79;95.27
27643;BME280;15053;48.618;10.024;2023-09-18T12:12:08;94023.03;;;17.74;95.75
27643;BME280;15053;48.618;10.024;2023-09-18T12:14:35;94013.31;;;17.62;96.82
27643;BME280;15053;48.618;10.024;2023-09-18T12:17:03;94012.81;;;17.57;97.39
27643;BME280;15053;48.618;10.024;2023-09-18T12:19:30;94029.59;;;17.52;97.97
27643;BME280;15053;48.618;10.024;2023-09-18T12:21:57;94037.03;;;17.50;98.31
27643;BME280;15053;48.618;10.024;2023-09-18T12:24:24;94035.53;;;17.49;98.69
27643;BME280;15053;48.618;10.024;2023-09-18T12:26:52;94030.25;;;17.49;98.93
27643;BME280;15053;48.618;10.024;2023-09-18T12:29:20;94038.38;;;17.44;99.42
27643;BME280;15053;48.618;10.024;2023-09-18T12:31:47;94025.91;;;17.41;99.99
27643;BME280;15053;48.618;10.024;2023-09-18T12:34:16;94022.50;;;17.41;100.00
27643;BME280;15053;48.618;10.024;2023-09-18T12:36:44;94010.53;;;17.43;100.00
27643;BME280;15053;48.618;10.024;2023-09-18T12:39:14;93995.56;;;17.47;100.00
27643;BME280;15053;48.618;10.024;2023-09-18T12:41:44;93995.34;;;17.52;100.00
27643;BME280;15053;48.618;10.024;2023-09-18T12:44:11;93994.38;;;17.57;100.00
27643;BME280;15053;48.618;10.024;2023-09-18T12:46:38;93990.97;;;17.56;100.00
27643;BME280;15053;48.618;10.024;2023-09-18T12:49:17;93982.81;;;17.61;100.00
27643;BME280;15053;48.618;10.024;2023-09-18T12:51:43;93999.25;;;17.71;100.00
27643;BME280;15053;48.618;10.024;2023-09-18T12:54:10;94014.69;;;17.72;100.00
27643;BME280;15053;48.618;10.024;2023-09-18T12:56:40;94009.78;;;17.71;100.00
27643;BME280;15053;48.618;10.024;2023-09-18T12:59:08;94006.88;;;17.76;100.00
27643;BME280;15053;48.618;10.024;2023-09-18T13:01:46;93978.34;;;17.78;99.49